createdAt,value
2023-03-26T00:00:48.640Z,93.00
2023-03-26T00:03:17.164Z,93.14
2023-03-26T00:05:45.727Z,93.51
2023-03-26T00:08:12.659Z,93.50
2023-03-26T00:10:40.314Z,93.54
2023-03-26T00:13:07.509Z,94.10
2023-03-26T00:15:34.962Z,94.48
2023-03-26T00:18:01.916Z,94.18
2023-03-26T00:20:29.840Z,94.61
2023-03-26T00:22:56.747Z,94.61
2023-03-26T00:25:26.355Z,94.51
2023-03-26T00:27:53.145Z,94.70
2023-03-26T00:30:20.273Z,94.72
2023-03-26T00:32:53.605Z,94.48
2023-03-26T00:35:20.981Z,95.27
2023-03-26T00:37:48.073Z,95.12
2023-03-26T00:40:14.944Z,94.39
2023-03-26T00:42:42.596Z,95.22
2023-03-26T00:45:09.762Z,95.04
2023-03-26T00:47:36.780Z,95.39
2023-03-26T00:50:04.384Z,95.39
2023-03-26T00:52:31.909Z,95.27
2023-03-26T00:54:58.722Z,94.95
2023-03-26T00:57:36.034Z,95.14
2023-03-26T01:00:10.284Z,94.98
2023-03-26T01:02:37.155Z,94.71
2023-03-26T01:05:42.887Z,94.37
2023-03-26T01:08:15.249Z,94.78
2023-03-26T01:10:43.030Z,94.60
2023-03-26T01:13:09.849Z,94.71
2023-03-26T01:15:39.347Z,94.87
2023-03-26T01:18:10.137Z,95.14
2023-03-26T01:20:38.679Z,95.24
2023-03-26T01:23:06.417Z,95.17
2023-03-26T01:25:37.416Z,94.80
2023-03-26T01:28:06.028Z,94.82
2023-03-26T01:30:41.872Z,95.03
2023-03-26T01:33:22.390Z,95.37
2023-03-26T01:35:58.684Z,95.62
2023-03-26T01:38:37.745Z,95.46
2023-03-26T01:41:08.087Z,95.17
2023-03-26T01:43:56.668Z,95.02
2023-03-26T01:46:23.497Z,94.74
2023-03-26T01:48:50.306Z,94.50
2023-03-26T01:51:30.661Z,93.96
2023-03-26T01:53:57.497Z,94.27
2023-03-26T01:56:58.071Z,93.83
2023-03-26T01:59:55.741Z,93.24
2023-03-26T02:02:42.924Z,92.85
2023-03-26T02:05:27.111Z,92.22
2023-03-26T02:07:58.709Z,92.04
2023-03-26T02:10:29.894Z,91.78
2023-03-26T02:12:56.944Z,91.53
2023-03-26T02:15:23.767Z,91.66
2023-03-26T02:17:52.473Z,91.61
2023-03-26T02:20:19.881Z,91.58
2023-03-26T02:22:47.376Z,91.50
2023-03-26T02:25:18.591Z,91.27
2023-03-26T02:27:45.836Z,91.05
2023-03-26T02:30:19.753Z,90.51
2023-03-26T02:32:46.672Z,90.47
2023-03-26T02:35:13.593Z,90.39
2023-03-26T02:37:40.571Z,90.32
2023-03-26T02:40:11.628Z,90.25
2023-03-26T02:42:38.678Z,90.36
2023-03-26T02:45:06.470Z,90.19
2023-03-26T02:47:33.998Z,90.44
2023-03-26T02:50:01.633Z,90.67
2023-03-26T02:52:28.408Z,90.96
2023-03-26T02:54:55.635Z,91.22
2023-03-26T02:57:23.305Z,91.31
2023-03-26T02:59:50.573Z,91.64
2023-03-26T03:02:18.594Z,91.57
2023-03-26T03:04:45.353Z,91.55
2023-03-26T03:07:14.569Z,91.61
2023-03-26T03:09:41.747Z,91.78
2023-03-26T03:12:08.596Z,92.02
2023-03-26T03:14:35.515Z,92.10
2023-03-26T03:17:02.465Z,92.33
2023-03-26T03:19:29.280Z,92.13
2023-03-26T03:21:56.343Z,92.09
2023-03-26T03:24:23.676Z,91.33
2023-03-26T03:26:55.111Z,91.29
2023-03-26T03:29:21.894Z,91.42
2023-03-26T03:31:48.833Z,91.13
2023-03-26T03:34:15.619Z,91.09
2023-03-26T03:36:42.387Z,90.97
2023-03-26T03:39:09.172Z,90.90
2023-03-26T03:41:36.063Z,91.38
2023-03-26T03:44:02.921Z,91.62
2023-03-26T03:46:29.861Z,91.80
2023-03-26T03:48:56.768Z,91.98
2023-03-26T03:51:23.808Z,92.02
2023-03-26T03:53:50.674Z,92.40
2023-03-26T03:56:19.361Z,92.04
2023-03-26T03:58:47.569Z,91.84
2023-03-26T04:01:15.454Z,91.65
2023-03-26T04:03:42.533Z,91.38
2023-03-26T04:06:11.253Z,91.08
2023-03-26T04:08:38.211Z,91.27
2023-03-26T04:11:05.124Z,91.12
2023-03-26T04:13:31.935Z,91.30
2023-03-26T04:15:59.174Z,91.43
2023-03-26T04:18:26.663Z,91.98
2023-03-26T04:20:55.695Z,91.89
2023-03-26T04:23:23.431Z,91.94
2023-03-26T04:25:54.140Z,91.94
2023-03-26T04:28:28.937Z,91.80
2023-03-26T04:30:55.898Z,91.48
2023-03-26T04:33:22.788Z,91.62
2023-03-26T04:35:49.718Z,91.10
2023-03-26T04:38:17.675Z,91.39
2023-03-26T04:40:47.443Z,91.47
2023-03-26T04:43:14.840Z,91.54
2023-03-26T04:45:41.648Z,91.82
2023-03-26T04:48:09.031Z,91.89
2023-03-26T04:50:36.011Z,92.01
2023-03-26T04:53:02.805Z,92.07
2023-03-26T04:55:33.390Z,92.35
2023-03-26T04:58:03.566Z,92.31
2023-03-26T05:00:30.331Z,92.52
2023-03-26T05:02:59.572Z,92.44
2023-03-26T05:05:26.649Z,92.49
2023-03-26T05:07:53.383Z,92.00
2023-03-26T05:10:23.561Z,92.00
2023-03-26T05:12:50.516Z,91.35
2023-03-26T05:15:17.382Z,91.20
2023-03-26T05:17:44.368Z,90.73
2023-03-26T05:20:23.376Z,90.35
2023-03-26T05:22:50.474Z,90.23
2023-03-26T05:25:17.754Z,90.17
2023-03-26T05:27:45.040Z,89.94
2023-03-26T05:30:14.756Z,90.22
2023-03-26T05:32:41.687Z,90.15
2023-03-26T05:35:09.552Z,90.20
2023-03-26T05:37:38.950Z,90.17
2023-03-26T05:40:11.836Z,89.80
2023-03-26T05:42:41.532Z,89.57
2023-03-26T05:45:12.138Z,89.72
2023-03-26T05:47:39.094Z,89.80
2023-03-26T05:50:09.404Z,90.12
2023-03-26T05:52:36.370Z,90.52
2023-03-26T05:55:03.298Z,90.68
2023-03-26T05:57:30.960Z,90.77
2023-03-26T05:59:57.857Z,90.54
2023-03-26T06:02:24.709Z,90.49
2023-03-26T06:04:51.626Z,90.39
2023-03-26T06:07:18.743Z,90.04
2023-03-26T06:09:45.835Z,90.02
2023-03-26T06:12:13.160Z,90.04
2023-03-26T06:14:43.621Z,89.87
2023-03-26T06:17:10.579Z,89.50
2023-03-26T06:19:37.759Z,89.57
2023-03-26T06:22:05.022Z,89.35
2023-03-26T06:24:32.171Z,88.98
2023-03-26T06:26:59.170Z,88.85
2023-03-26T06:29:26.219Z,88.95
2023-03-26T06:31:53.029Z,88.82
2023-03-26T06:34:19.890Z,89.00
2023-03-26T06:36:54.011Z,89.19
2023-03-26T06:39:21.068Z,89.50
2023-03-26T06:41:48.018Z,89.56
2023-03-26T06:44:14.774Z,89.64
2023-03-26T06:46:41.675Z,89.62
2023-03-26T06:49:08.520Z,89.62
2023-03-26T06:51:35.518Z,89.61
2023-03-26T06:54:02.405Z,89.74
2023-03-26T06:56:29.406Z,89.71
2023-03-26T06:59:09.962Z,89.94
2023-03-26T07:01:36.858Z,90.94
2023-03-26T07:04:03.932Z,91.53
2023-03-26T07:06:30.766Z,92.36
2023-03-26T07:08:57.609Z,93.24
2023-03-26T07:11:25.655Z,93.74
2023-03-26T07:13:52.663Z,94.79
2023-03-26T07:16:19.562Z,95.61
2023-03-26T07:18:46.657Z,96.04
2023-03-26T07:21:13.918Z,95.83
2023-03-26T07:23:40.932Z,95.33
2023-03-26T07:26:30.795Z,95.15
2023-03-26T07:29:03.977Z,95.73
2023-03-26T07:31:42.716Z,96.18
2023-03-26T07:34:38.632Z,97.07
2023-03-26T07:38:10.356Z,98.89
2023-03-26T07:40:52.075Z,100.00
2023-03-26T07:43:41.291Z,100.00
2023-03-26T07:46:12.917Z,100.00
2023-03-26T07:48:41.544Z,100.00
2023-03-26T07:51:09.178Z,100.00
2023-03-26T07:53:36.306Z,100.00
2023-03-26T07:56:06.189Z,100.00
2023-03-26T07:59:11.862Z,100.00
2023-03-26T08:01:56.823Z,100.00
2023-03-26T08:04:59.053Z,100.00
2023-03-26T08:07:45.338Z,100.00
2023-03-26T08:10:59.605Z,100.00
2023-03-26T08:13:50.656Z,100.00
2023-03-26T08:16:25.698Z,100.00
2023-03-26T08:18:56.981Z,100.00
2023-03-26T08:21:27.345Z,100.00
2023-03-26T08:24:13.753Z,100.00
2023-03-26T08:26:47.391Z,100.00
2023-03-26T08:29:27.602Z,100.00
2023-03-26T08:31:54.321Z,100.00
2023-03-26T08:34:21.064Z,100.00
2023-03-26T08:36:47.873Z,100.00
2023-03-26T08:39:14.857Z,100.00
2023-03-26T08:41:44.512Z,100.00
2023-03-26T08:44:11.201Z,100.00
2023-03-26T08:46:56.207Z,100.00
2023-03-26T08:49:44.165Z,100.00
2023-03-26T08:52:38.793Z,100.00
2023-03-26T08:55:20.584Z,100.00
2023-03-26T08:58:08.970Z,100.00
2023-03-26T09:00:57.290Z,100.00
2023-03-26T09:03:47.218Z,100.00
2023-03-26T09:06:36.878Z,100.00
2023-03-26T09:09:18.763Z,100.00
2023-03-26T09:12:25.462Z,100.00
2023-03-26T09:15:31.238Z,100.00
2023-03-26T09:18:35.644Z,100.00
2023-03-26T09:21:12.423Z,100.00
2023-03-26T09:24:10.187Z,100.00
2023-03-26T09:27:24.641Z,100.00
2023-03-26T09:30:16.346Z,100.00
2023-03-26T09:32:48.223Z,100.00
2023-03-26T09:35:57.830Z,100.00
2023-03-26T09:38:33.872Z,100.00
2023-03-26T09:41:15.741Z,100.00
2023-03-26T09:43:56.298Z,100.00
2023-03-26T09:46:48.018Z,100.00
2023-03-26T09:49:40.951Z,100.00
2023-03-26T09:52:41.356Z,99.75
2023-03-26T09:55:32.537Z,97.31
2023-03-26T09:58:14.214Z,95.31
2023-03-26T10:01:05.877Z,94.75
2023-03-26T10:03:36.324Z,98.73
2023-03-26T10:06:11.852Z,100.00
2023-03-26T10:08:57.368Z,100.00
2023-03-26T10:12:08.326Z,99.31
2023-03-26T10:14:44.189Z,100.00
2023-03-26T10:17:19.973Z,95.53
2023-03-26T10:20:17.961Z,93.18
2023-03-26T10:23:00.697Z,94.12
2023-03-26T10:25:42.715Z,90.57
2023-03-26T10:28:26.077Z,85.06
2023-03-26T10:31:23.536Z,80.27
2023-03-26T10:34:28.556Z,78.06
2023-03-26T10:37:14.764Z,76.43
2023-03-26T10:40:11.385Z,76.81
2023-03-26T10:43:07.615Z,73.29
2023-03-26T10:46:02.431Z,71.88
2023-03-26T10:49:01.199Z,71.49
2023-03-26T10:51:32.447Z,73.22
2023-03-26T10:54:03.339Z,75.09
2023-03-26T10:56:33.467Z,73.59
2023-03-26T10:59:03.774Z,72.71
2023-03-26T11:01:36.541Z,70.10
2023-03-26T11:04:26.550Z,66.33
2023-03-26T11:07:12.227Z,62.64
2023-03-26T11:10:02.895Z,61.18
2023-03-26T11:12:49.290Z,61.48
2023-03-26T11:15:23.606Z,61.08
2023-03-26T11:18:09.277Z,57.01
2023-03-26T11:21:20.658Z,55.29
2023-03-26T11:24:04.671Z,54.11
2023-03-26T11:27:14.966Z,50.90
2023-03-26T11:29:54.398Z,51.52
2023-03-26T11:32:24.206Z,53.61
2023-03-26T11:34:58.497Z,51.85
2023-03-26T11:37:38.910Z,50.29
2023-03-26T11:40:21.547Z,51.56
2023-03-26T11:42:49.087Z,52.07
2023-03-26T11:45:18.723Z,50.16
2023-03-26T11:47:53.211Z,48.67
2023-03-26T11:50:27.206Z,46.18
2023-03-26T11:53:03.573Z,44.27
2023-03-26T11:55:30.362Z,43.65
2023-03-26T11:57:58.272Z,43.81
2023-03-26T12:00:27.791Z,44.72
2023-03-26T12:02:58.715Z,44.81
2023-03-26T12:05:27.627Z,44.55
2023-03-26T12:07:56.920Z,43.84
2023-03-26T12:10:25.235Z,43.05
2023-03-26T12:12:56.899Z,42.28
2023-03-26T12:15:23.699Z,42.00
2023-03-26T12:17:53.752Z,41.32
2023-03-26T12:20:26.956Z,40.36
2023-03-26T12:23:00.437Z,40.53
2023-03-26T12:25:36.448Z,39.26
2023-03-26T12:28:16.588Z,38.36
2023-03-26T12:31:11.580Z,37.73
2023-03-26T12:33:39.070Z,37.91
2023-03-26T12:36:25.808Z,36.83
2023-03-26T12:39:16.837Z,37.17
2023-03-26T12:44:41.800Z,37.04
2023-03-26T12:44:59.112Z,36.12
2023-03-26T12:47:58.182Z,35.86
2023-03-26T12:50:34.223Z,34.93
2023-03-26T12:53:05.720Z,34.09
2023-03-26T12:55:54.429Z,33.60
2023-03-26T12:58:38.688Z,33.43
2023-03-26T13:01:20.762Z,33.16
2023-03-26T13:04:05.373Z,32.20
2023-03-26T13:07:01.572Z,32.24
2023-03-26T13:09:54.210Z,31.44
2023-03-26T13:13:00.606Z,31.24
2023-03-26T13:15:27.367Z,30.84
2023-03-26T13:18:07.827Z,30.02
2023-03-26T13:21:08.507Z,29.77
2023-03-26T13:23:53.578Z,29.92
2023-03-26T13:26:26.885Z,31.04
2023-03-26T13:29:14.454Z,31.59
2023-03-26T13:32:07.587Z,32.34
2023-03-26T13:34:46.414Z,32.93
2023-03-26T13:37:21.767Z,33.82
2023-03-26T13:40:14.096Z,35.17
2023-03-26T13:42:47.235Z,35.74
2023-03-26T13:45:32.548Z,35.78
2023-03-26T13:47:59.298Z,37.00
2023-03-26T13:50:39.142Z,37.55
2023-03-26T13:53:08.406Z,38.23
2023-03-26T13:55:46.465Z,38.68
2023-03-26T13:58:24.505Z,39.09
2023-03-26T14:01:07.854Z,39.38
2023-03-26T14:04:01.361Z,39.37
2023-03-26T14:06:46.940Z,39.92
2023-03-26T14:10:08.159Z,40.32
2023-03-26T14:13:12.279Z,41.16
2023-03-26T14:15:47.368Z,41.66
2023-03-26T14:18:32.503Z,41.96
2023-03-26T14:21:27.163Z,42.30
2023-03-26T14:24:15.857Z,42.65
2023-03-26T14:26:52.037Z,42.45
2023-03-26T14:29:26.881Z,42.98
2023-03-26T14:32:24.299Z,43.18
2023-03-26T14:35:09.632Z,43.20
2023-03-26T14:38:33.137Z,43.49
2023-03-26T14:41:25.575Z,43.71
2023-03-26T14:44:17.193Z,44.14
2023-03-26T14:46:56.229Z,44.24
2023-03-26T14:49:46.128Z,44.44
2023-03-26T14:52:33.836Z,44.95
2023-03-26T14:55:01.720Z,45.21
2023-03-26T14:57:34.721Z,45.49
2023-03-26T15:00:55.806Z,45.77
2023-03-26T15:03:38.945Z,45.65
2023-03-26T15:06:27.215Z,45.03
2023-03-26T15:09:12.453Z,44.92
2023-03-26T15:12:16.284Z,45.19
2023-03-26T15:14:59.982Z,45.43
2023-03-26T15:17:35.847Z,45.59
2023-03-26T15:20:33.193Z,45.65
2023-03-26T15:23:37.495Z,45.82
2023-03-26T15:26:24.593Z,45.73
2023-03-26T15:29:19.152Z,45.96
2023-03-26T15:31:57.865Z,46.23
2023-03-26T15:35:02.808Z,46.45
2023-03-26T15:37:58.893Z,46.43
2023-03-26T15:40:38.200Z,46.34
2023-03-26T15:43:11.975Z,47.21
2023-03-26T15:46:10.996Z,46.90
2023-03-26T15:49:01.029Z,47.74
2023-03-26T15:51:49.552Z,47.29
2023-03-26T15:54:52.132Z,48.04
2023-03-26T15:57:47.308Z,48.18
2023-03-26T16:00:24.692Z,47.95
2023-03-26T16:03:14.430Z,48.07
2023-03-26T16:05:44.211Z,47.90
2023-03-26T16:08:15.033Z,48.52
2023-03-26T16:11:00.885Z,49.00
2023-03-26T16:13:46.200Z,48.21
2023-03-26T16:16:16.393Z,48.18
2023-03-26T16:19:26.582Z,49.02
2023-03-26T16:22:14.349Z,49.45
2023-03-26T16:24:44.757Z,49.77
2023-03-26T16:27:14.692Z,49.69
2023-03-26T16:30:00.281Z,49.52
2023-03-26T16:32:29.058Z,49.63
2023-03-26T16:35:14.424Z,49.05
2023-03-26T16:37:50.167Z,49.48
2023-03-26T16:40:17.376Z,50.10
2023-03-26T16:43:15.631Z,50.01
2023-03-26T16:45:48.418Z,49.65
2023-03-26T16:48:37.116Z,50.19
2023-03-26T16:51:15.009Z,50.55
2023-03-26T16:54:07.486Z,49.93
2023-03-26T16:56:41.595Z,49.84
2023-03-26T16:59:31.263Z,50.41
2023-03-26T17:01:59.885Z,50.65
2023-03-26T17:04:29.250Z,50.23
2023-03-26T17:07:17.573Z,50.41
2023-03-26T17:10:03.234Z,50.57
2023-03-26T17:12:43.046Z,51.14
2023-03-26T17:15:28.809Z,51.38
2023-03-26T17:18:07.708Z,51.18
2023-03-26T17:21:02.064Z,51.22
2023-03-26T17:23:41.397Z,50.91
2023-03-26T17:26:44.517Z,50.94
2023-03-26T17:29:20.814Z,51.24
2023-03-26T17:31:51.184Z,51.29
2023-03-26T17:34:40.582Z,51.81
2023-03-26T17:37:31.412Z,51.80
2023-03-26T17:39:58.333Z,51.89
2023-03-26T17:42:27.038Z,51.78
2023-03-26T17:44:57.614Z,52.17
2023-03-26T17:47:30.175Z,52.31
2023-03-26T17:50:04.743Z,52.73
2023-03-26T17:52:58.747Z,52.99
2023-03-26T17:55:33.357Z,52.78
2023-03-26T17:58:02.090Z,52.97
2023-03-26T18:00:50.749Z,52.86
2023-03-26T18:03:24.502Z,52.76
2023-03-26T18:05:55.739Z,52.96
2023-03-26T18:08:42.061Z,53.21
2023-03-26T18:11:45.833Z,53.10
2023-03-26T18:14:19.535Z,53.34
2023-03-26T18:16:49.562Z,53.40
2023-03-26T18:19:23.031Z,53.28
2023-03-26T18:21:51.705Z,53.39
2023-03-26T18:24:21.957Z,53.23
2023-03-26T18:26:58.566Z,53.55
2023-03-26T18:29:32.592Z,53.21
2023-03-26T18:32:14.115Z,53.04
2023-03-26T18:34:50.103Z,53.17
2023-03-26T18:37:38.969Z,52.75
2023-03-26T18:40:10.154Z,53.10
2023-03-26T18:42:37.178Z,52.91
2023-03-26T18:45:09.988Z,53.26
2023-03-26T18:47:38.606Z,53.31
2023-03-26T18:50:06.100Z,53.37
2023-03-26T18:52:32.852Z,53.30
2023-03-26T18:54:59.682Z,53.44
2023-03-26T18:57:28.217Z,53.32
2023-03-26T18:59:56.750Z,53.44
2023-03-26T19:02:23.713Z,53.48
2023-03-26T19:04:51.002Z,53.62
2023-03-26T19:07:22.628Z,53.60
2023-03-26T19:09:50.000Z,54.08
2023-03-26T19:12:23.290Z,53.98
2023-03-26T19:15:07.841Z,54.10
2023-03-26T19:17:42.632Z,54.48
2023-03-26T19:20:23.072Z,54.69
2023-03-26T19:22:49.913Z,54.64
2023-03-26T19:25:28.362Z,54.68
2023-03-26T19:27:55.370Z,54.61
2023-03-26T19:30:31.951Z,54.73
2023-03-26T19:33:12.034Z,54.97
2023-03-26T19:35:40.658Z,54.54
2023-03-26T19:38:44.435Z,54.67
2023-03-26T19:41:26.254Z,55.23
2023-03-26T19:43:55.952Z,55.22
2023-03-26T19:46:23.493Z,55.22
2023-03-26T19:48:56.438Z,55.45
2023-03-26T19:51:34.154Z,55.60
2023-03-26T19:54:03.231Z,55.82
2023-03-26T19:56:30.441Z,55.97
2023-03-26T19:58:57.739Z,55.90
2023-03-26T20:01:26.776Z,56.03
2023-03-26T20:03:59.214Z,56.12
2023-03-26T20:06:41.705Z,56.16
2023-03-26T20:09:11.230Z,56.39
2023-03-26T20:11:39.341Z,56.31
2023-03-26T20:14:16.725Z,56.76
2023-03-26T20:16:45.443Z,56.91
2023-03-26T20:19:14.291Z,57.00
2023-03-26T20:21:41.780Z,56.81
2023-03-26T20:24:13.397Z,57.03
2023-03-26T20:26:40.285Z,57.15
2023-03-26T20:29:07.273Z,57.14
2023-03-26T20:31:34.440Z,57.19
2023-03-26T20:34:01.327Z,57.10
2023-03-26T20:36:33.803Z,57.08
2023-03-26T20:39:08.090Z,57.15
2023-03-26T20:41:36.128Z,57.34
2023-03-26T20:44:05.515Z,57.14
2023-03-26T20:46:35.089Z,57.23
2023-03-26T20:49:01.969Z,57.26
2023-03-26T20:51:29.189Z,57.33
2023-03-26T20:53:56.086Z,57.59
2023-03-26T20:56:23.659Z,57.51
2023-03-26T20:59:03.619Z,57.58
2023-03-26T21:01:38.170Z,57.61
2023-03-26T21:04:05.464Z,57.89
2023-03-26T21:06:32.197Z,57.80
2023-03-26T21:08:59.393Z,57.72
2023-03-26T21:11:33.649Z,58.07
2023-03-26T21:14:06.166Z,58.04
2023-03-26T21:16:33.620Z,58.14
2023-03-26T21:19:00.948Z,58.27
2023-03-26T21:21:46.670Z,58.48
2023-03-26T21:24:22.877Z,58.45
2023-03-26T21:27:10.886Z,58.49
2023-03-26T21:29:38.198Z,58.61
2023-03-26T21:32:05.733Z,58.62
2023-03-26T21:34:37.698Z,58.75
2023-03-26T21:37:08.000Z,58.87
2023-03-26T21:39:35.231Z,58.85
2023-03-26T21:42:05.399Z,59.12
2023-03-26T21:44:33.740Z,59.24
2023-03-26T21:47:01.031Z,59.13
2023-03-26T21:49:28.514Z,59.42
2023-03-26T21:51:55.664Z,59.48
2023-03-26T21:54:31.050Z,59.43
2023-03-26T21:57:22.897Z,59.51
2023-03-26T22:00:15.536Z,59.48
2023-03-26T22:02:57.604Z,59.42
2023-03-26T22:05:49.273Z,59.37
2023-03-26T22:08:27.598Z,59.26
2023-03-26T22:10:54.620Z,59.27
2023-03-26T22:13:21.570Z,59.26
2023-03-26T22:15:48.354Z,59.49
2023-03-26T22:18:15.400Z,59.44
2023-03-26T22:20:46.706Z,59.55
2023-03-26T22:23:13.493Z,59.72
2023-03-26T22:25:40.441Z,59.55
2023-03-26T22:28:07.185Z,59.62
2023-03-26T22:30:33.917Z,59.61
2023-03-26T22:33:00.879Z,59.55
2023-03-26T22:35:27.976Z,59.77
2023-03-26T22:38:00.918Z,59.84
2023-03-26T22:40:28.508Z,59.70
2023-03-26T22:42:55.349Z,59.51
2023-03-26T22:45:22.998Z,59.75
2023-03-26T22:47:50.197Z,59.78
2023-03-26T22:50:16.957Z,59.75
2023-03-26T22:52:43.732Z,59.77
2023-03-26T22:55:11.789Z,59.91
2023-03-26T22:57:39.300Z,60.11
2023-03-26T23:00:20.029Z,60.09
2023-03-26T23:02:46.901Z,59.97
2023-03-26T23:05:14.125Z,60.01
2023-03-26T23:07:42.633Z,60.08
2023-03-26T23:10:09.821Z,60.21
2023-03-26T23:12:37.111Z,60.20
2023-03-26T23:15:05.405Z,60.15
2023-03-26T23:17:34.248Z,60.09
2023-03-26T23:20:06.436Z,60.41
2023-03-26T23:22:35.369Z,60.20
2023-03-26T23:25:02.205Z,60.31
2023-03-26T23:27:29.294Z,60.32
2023-03-26T23:29:56.974Z,60.38
2023-03-26T23:32:25.368Z,60.32
2023-03-26T23:34:52.606Z,60.21
2023-03-26T23:37:23.529Z,60.20
2023-03-26T23:39:51.176Z,60.32
2023-03-26T23:42:28.566Z,60.09
2023-03-26T23:44:57.312Z,60.26
2023-03-26T23:47:24.650Z,60.34
2023-03-26T23:49:51.536Z,60.30
2023-03-26T23:52:18.561Z,60.33
2023-03-26T23:54:45.810Z,60.38
2023-03-26T23:57:12.853Z,60.43
2023-03-26T23:59:41.503Z,60.33
